createdAt,value
2017-12-20T00:01:40.434Z,76.70
2017-12-20T00:04:08.030Z,76.98
2017-12-20T00:06:35.695Z,76.62
2017-12-20T00:09:03.383Z,76.64
2017-12-20T00:11:31.045Z,76.93
2017-12-20T00:13:58.703Z,77.33
2017-12-20T00:16:26.302Z,76.90
2017-12-20T00:18:53.901Z,77.35
2017-12-20T00:21:21.611Z,77.15
2017-12-20T00:23:49.271Z,76.61
2017-12-20T00:26:16.879Z,76.63
2017-12-20T00:28:44.532Z,76.81
2017-12-20T00:31:12.144Z,76.41
2017-12-20T00:33:39.747Z,76.54
2017-12-20T00:36:07.398Z,77.12
2017-12-20T00:38:35.064Z,76.53
2017-12-20T00:41:02.718Z,76.73
2017-12-20T00:43:30.358Z,75.57
2017-12-20T00:45:57.971Z,75.58
2017-12-20T00:48:25.579Z,75.61
2017-12-20T00:50:53.251Z,75.74
2017-12-20T00:53:20.859Z,75.69
2017-12-20T00:55:48.458Z,75.69
2017-12-20T00:58:16.179Z,75.83
2017-12-20T01:00:43.781Z,75.77
2017-12-20T01:03:11.492Z,75.25
2017-12-20T01:05:39.232Z,75.35
2017-12-20T01:08:06.859Z,75.98
2017-12-20T01:10:34.458Z,76.78
2017-12-20T01:13:02.111Z,75.69
2017-12-20T01:15:29.715Z,75.47
2017-12-20T01:17:57.306Z,75.19
2017-12-20T01:20:24.971Z,75.18
2017-12-20T01:22:52.579Z,75.35
2017-12-20T01:25:20.239Z,75.48
2017-12-20T01:27:47.962Z,76.15
2017-12-20T01:30:15.566Z,76.18
2017-12-20T01:32:43.227Z,76.45
2017-12-20T01:35:10.893Z,77.69
2017-12-20T01:37:38.495Z,78.05
2017-12-20T01:40:06.098Z,78.53
2017-12-20T01:42:36.591Z,78.97
2017-12-20T01:45:04.196Z,78.85
2017-12-20T01:47:31.867Z,79.01
2017-12-20T01:49:59.547Z,78.48
2017-12-20T01:52:27.203Z,78.98
2017-12-20T01:54:54.855Z,78.98
2017-12-20T01:57:22.533Z,78.90
2017-12-20T01:59:50.192Z,79.33
2017-12-20T02:02:17.787Z,79.52
2017-12-20T02:04:45.434Z,79.46
2017-12-20T02:07:13.096Z,79.93
2017-12-20T02:09:40.694Z,79.42
2017-12-20T02:12:08.347Z,79.61
2017-12-20T02:14:35.944Z,79.99
2017-12-20T02:17:03.559Z,80.64
2017-12-20T02:19:31.312Z,80.58
2017-12-20T02:21:58.924Z,80.56
2017-12-20T02:24:26.583Z,80.70
2017-12-20T02:26:54.248Z,81.09
2017-12-20T02:29:21.851Z,81.31
2017-12-20T02:31:49.456Z,81.75
2017-12-20T02:34:17.114Z,81.97
2017-12-20T02:36:44.722Z,82.29
2017-12-20T02:39:12.339Z,82.38
2017-12-20T02:41:40.075Z,82.71
2017-12-20T02:44:07.699Z,82.76
2017-12-20T02:46:35.380Z,82.94
2017-12-20T02:49:03.123Z,82.91
2017-12-20T02:51:30.743Z,82.97
2017-12-20T02:53:58.354Z,83.12
2017-12-20T02:56:26.055Z,83.46
2017-12-20T02:58:53.803Z,83.51
2017-12-20T03:01:21.422Z,83.56
2017-12-20T03:03:49.143Z,83.83
2017-12-20T03:06:16.774Z,83.86
2017-12-20T03:08:44.393Z,83.89
2017-12-20T03:11:12.082Z,84.01
2017-12-20T03:13:39.727Z,83.86
2017-12-20T03:16:07.567Z,84.12
2017-12-20T03:18:35.288Z,83.90
2017-12-20T03:21:02.898Z,84.02
2017-12-20T03:23:30.563Z,84.09
2017-12-20T03:25:58.223Z,84.24
2017-12-20T03:28:25.827Z,84.44
2017-12-20T03:30:53.448Z,84.77
2017-12-20T03:33:21.178Z,85.12
2017-12-20T03:35:48.860Z,85.27
2017-12-20T03:38:16.531Z,85.48
2017-12-20T03:40:44.278Z,85.57
2017-12-20T03:43:11.957Z,85.66
2017-12-20T03:45:39.623Z,85.69
2017-12-20T03:48:07.286Z,85.59
2017-12-20T03:50:35.004Z,85.31
2017-12-20T03:53:02.623Z,85.19
2017-12-20T03:55:47.924Z,84.71
2017-12-20T03:58:15.522Z,84.37
2017-12-20T04:00:43.120Z,84.30
2017-12-20T04:03:10.781Z,84.55
2017-12-20T04:05:38.435Z,84.48
2017-12-20T04:08:06.099Z,84.60
2017-12-20T04:10:33.823Z,84.81
2017-12-20T04:13:01.431Z,85.00
2017-12-20T04:15:29.134Z,85.07
2017-12-20T04:17:56.799Z,84.75
2017-12-20T04:20:24.410Z,84.38
2017-12-20T04:22:52.091Z,83.73
2017-12-20T04:25:19.819Z,83.70
2017-12-20T04:28:05.020Z,83.91
2017-12-20T04:30:32.699Z,84.07
2017-12-20T04:33:00.298Z,83.42
2017-12-20T04:35:27.907Z,83.44
2017-12-20T04:37:55.626Z,83.44
2017-12-20T04:40:23.235Z,83.24
2017-12-20T04:42:50.846Z,83.37
2017-12-20T04:45:18.559Z,83.14
2017-12-20T04:47:46.223Z,83.15
2017-12-20T04:50:13.827Z,82.77
2017-12-20T04:52:41.483Z,80.70
2017-12-20T04:55:09.091Z,81.17
2017-12-20T04:57:36.702Z,80.07
2017-12-20T05:00:04.390Z,79.73
2017-12-20T05:02:32.001Z,80.06
2017-12-20T05:04:59.609Z,79.84
2017-12-20T05:07:27.279Z,79.86
2017-12-20T05:09:54.883Z,79.93
2017-12-20T05:12:22.490Z,80.31
2017-12-20T05:14:50.147Z,79.54
2017-12-20T05:17:17.751Z,80.06
2017-12-20T05:19:45.362Z,78.78
2017-12-20T05:22:13.019Z,78.85
2017-12-20T05:24:40.779Z,77.47
2017-12-20T05:27:08.378Z,77.92
2017-12-20T05:29:36.043Z,78.44
2017-12-20T05:32:03.764Z,78.96
2017-12-20T05:34:31.366Z,77.90
2017-12-20T05:36:59.023Z,77.48
2017-12-20T05:39:26.682Z,76.88
2017-12-20T05:41:54.348Z,76.69
2017-12-20T05:44:21.999Z,76.66
2017-12-20T05:46:49.613Z,76.11
2017-12-20T05:49:17.279Z,75.71
2017-12-20T05:51:44.949Z,75.17
2017-12-20T05:54:12.556Z,75.88
2017-12-20T05:56:40.164Z,74.80
2017-12-20T05:59:07.832Z,75.31
2017-12-20T06:01:35.442Z,75.54
2017-12-20T06:04:03.049Z,76.48
2017-12-20T06:06:30.738Z,76.14
2017-12-20T06:08:58.347Z,75.88
2017-12-20T06:11:26.015Z,76.15
2017-12-20T06:13:53.727Z,76.52
2017-12-20T06:16:21.334Z,76.56
2017-12-20T06:18:48.934Z,76.39
2017-12-20T06:21:16.607Z,75.79
2017-12-20T06:23:44.218Z,75.78
2017-12-20T06:26:11.887Z,76.45
2017-12-20T06:28:39.599Z,75.79
2017-12-20T06:31:07.204Z,75.09
2017-12-20T06:33:34.867Z,74.39
2017-12-20T06:36:02.588Z,74.83
2017-12-20T06:38:30.219Z,74.36
2017-12-20T06:40:57.823Z,74.49
2017-12-20T06:43:25.502Z,73.69
2017-12-20T06:45:53.164Z,73.38
2017-12-20T06:48:20.762Z,73.20
2017-12-20T06:50:48.424Z,72.22
2017-12-20T06:53:16.088Z,72.08
2017-12-20T06:55:43.691Z,71.39
2017-12-20T06:58:11.351Z,71.06
2017-12-20T07:00:38.955Z,71.34
2017-12-20T07:03:06.612Z,70.54
2017-12-20T07:05:34.352Z,70.92
2017-12-20T07:08:01.959Z,70.84
2017-12-20T07:10:29.619Z,70.98
2017-12-20T07:12:57.303Z,69.77
2017-12-20T07:15:24.964Z,70.39
2017-12-20T07:17:52.563Z,70.46
2017-12-20T07:20:20.283Z,70.43
2017-12-20T07:22:47.948Z,69.71
2017-12-20T07:25:15.551Z,69.97
2017-12-20T07:27:43.267Z,70.61
2017-12-20T07:30:10.935Z,71.46
2017-12-20T07:32:38.539Z,70.67
2017-12-20T07:35:06.275Z,69.58
2017-12-20T07:37:33.896Z,70.29
2017-12-20T07:40:01.508Z,69.89
2017-12-20T07:42:29.219Z,68.99
2017-12-20T07:44:56.827Z,68.68
2017-12-20T07:47:24.489Z,69.87
2017-12-20T07:49:52.235Z,70.33
2017-12-20T07:52:19.899Z,70.70
2017-12-20T07:54:47.503Z,69.43
2017-12-20T07:57:15.223Z,68.12
2017-12-20T07:59:42.888Z,69.20
2017-12-20T08:02:10.491Z,68.39
2017-12-20T08:04:38.151Z,68.14
2017-12-20T08:07:05.755Z,68.06
2017-12-20T08:09:33.365Z,68.41
2017-12-20T08:12:01.056Z,68.55
2017-12-20T08:14:28.655Z,68.45
2017-12-20T08:16:56.316Z,67.34
2017-12-20T08:19:23.971Z,67.76
2017-12-20T08:21:51.571Z,67.70
2017-12-20T08:24:19.175Z,67.26
2017-12-20T08:26:46.834Z,66.72
2017-12-20T08:29:14.438Z,67.67
2017-12-20T08:31:42.049Z,67.20
2017-12-20T08:34:09.716Z,67.38
2017-12-20T08:36:37.381Z,68.00
2017-12-20T08:39:05.091Z,67.46
2017-12-20T08:41:32.809Z,67.86
2017-12-20T08:44:00.419Z,66.77
2017-12-20T08:46:28.025Z,67.27
2017-12-20T08:48:55.775Z,66.86
2017-12-20T08:51:23.444Z,65.74
2017-12-20T08:53:51.047Z,65.19
2017-12-20T08:56:18.702Z,62.15
2017-12-20T08:58:46.303Z,62.76
2017-12-20T09:01:13.905Z,60.81
2017-12-20T09:03:41.568Z,61.24
2017-12-20T09:06:09.231Z,62.28
2017-12-20T09:08:36.835Z,62.17
2017-12-20T09:11:04.491Z,59.94
2017-12-20T09:13:32.095Z,60.10
2017-12-20T09:15:59.730Z,59.84
2017-12-20T09:18:27.443Z,60.37
2017-12-20T09:20:55.119Z,60.17
2017-12-20T09:23:22.784Z,58.50
2017-12-20T09:25:50.503Z,59.19
2017-12-20T09:28:18.103Z,58.01
2017-12-20T09:30:45.710Z,56.58
2017-12-20T09:33:13.375Z,56.41
2017-12-20T09:35:40.983Z,57.36
2017-12-20T09:38:08.584Z,53.93
2017-12-20T09:40:36.255Z,54.39
2017-12-20T09:43:03.915Z,54.47
2017-12-20T09:45:31.515Z,53.66
2017-12-20T09:47:59.192Z,53.38
2017-12-20T09:50:26.791Z,52.46
2017-12-20T09:52:54.391Z,53.16
2017-12-20T09:55:22.133Z,53.09
2017-12-20T09:57:49.793Z,52.95
2017-12-20T10:00:17.527Z,52.48
2017-12-20T10:02:45.191Z,51.64
2017-12-20T10:05:12.804Z,51.09
2017-12-20T10:07:40.469Z,51.61
2017-12-20T10:10:08.179Z,50.65
2017-12-20T10:12:35.803Z,52.14
2017-12-20T10:15:03.502Z,51.99
2017-12-20T10:17:31.175Z,52.54
2017-12-20T10:19:58.790Z,52.19
2017-12-20T10:22:26.395Z,51.59
2017-12-20T10:24:54.047Z,52.28
2017-12-20T10:27:21.655Z,52.22
2017-12-20T10:29:49.315Z,52.74
2017-12-20T10:32:17.049Z,52.15
2017-12-20T10:34:44.706Z,50.89
2017-12-20T10:37:12.307Z,51.23
2017-12-20T10:39:39.982Z,50.66
2017-12-20T10:42:07.678Z,50.34
2017-12-20T10:44:35.295Z,50.69
2017-12-20T10:47:02.954Z,51.61
2017-12-20T10:49:30.559Z,51.76
2017-12-20T10:51:58.159Z,50.38
2017-12-20T10:54:25.899Z,49.09
2017-12-20T10:56:53.560Z,48.66
2017-12-20T10:59:21.162Z,50.24
2017-12-20T11:01:48.836Z,51.79
2017-12-20T11:04:16.438Z,52.41
2017-12-20T11:06:44.114Z,52.93
2017-12-20T11:09:11.847Z,52.76
2017-12-20T11:11:39.526Z,52.86
2017-12-20T11:14:07.330Z,55.10
2017-12-20T11:16:35.051Z,56.21
2017-12-20T11:19:02.724Z,57.04
2017-12-20T11:21:30.403Z,56.83
2017-12-20T11:23:58.134Z,58.02
2017-12-20T11:26:25.867Z,57.94
2017-12-20T11:28:53.599Z,57.87
2017-12-20T11:31:21.371Z,58.20
2017-12-20T11:33:49.050Z,59.42
2017-12-20T11:36:16.718Z,59.46
2017-12-20T11:38:44.447Z,59.78
2017-12-20T11:41:13.036Z,60.22
2017-12-20T11:43:40.775Z,60.63
2017-12-20T11:46:08.507Z,60.99
2017-12-20T11:48:36.244Z,59.61
2017-12-20T11:51:03.980Z,59.85
2017-12-20T11:53:31.768Z,59.53
2017-12-20T11:55:59.443Z,59.01
2017-12-20T11:58:27.115Z,58.86
2017-12-20T12:00:54.859Z,59.20
2017-12-20T12:03:22.530Z,58.34
2017-12-20T12:05:50.227Z,57.90
2017-12-20T12:08:17.994Z,56.04
2017-12-20T12:10:45.670Z,55.83
2017-12-20T12:13:13.399Z,56.72
2017-12-20T12:15:41.138Z,57.23
2017-12-20T12:18:08.867Z,57.29
2017-12-20T12:20:36.649Z,57.08
2017-12-20T12:23:04.494Z,57.58
2017-12-20T12:25:32.276Z,57.97
2017-12-20T12:27:59.947Z,59.57
2017-12-20T12:30:27.801Z,59.66
2017-12-20T12:32:55.539Z,59.49
2017-12-20T12:35:23.218Z,59.36
2017-12-20T12:37:51.095Z,59.21
2017-12-20T12:40:18.781Z,60.00
2017-12-20T12:42:46.451Z,59.90
2017-12-20T12:45:14.235Z,58.93
2017-12-20T12:47:41.911Z,58.79
2017-12-20T12:50:09.591Z,59.35
2017-12-20T12:52:37.343Z,58.85
2017-12-20T12:55:05.087Z,60.26
2017-12-20T12:57:32.763Z,59.40
2017-12-20T13:00:00.491Z,58.66
2017-12-20T13:02:28.163Z,59.27
2017-12-20T13:04:55.895Z,57.96
2017-12-20T13:07:23.623Z,58.65
2017-12-20T13:09:51.359Z,58.56
2017-12-20T13:12:19.103Z,58.77
2017-12-20T13:14:46.827Z,59.42
2017-12-20T13:17:14.503Z,59.62
2017-12-20T13:19:42.175Z,58.95
2017-12-20T13:22:09.971Z,59.54
2017-12-20T13:24:37.651Z,59.17
2017-12-20T13:27:05.330Z,59.37
2017-12-20T13:29:33.066Z,59.78
2017-12-20T13:32:00.807Z,59.87
2017-12-20T13:34:28.550Z,60.29
2017-12-20T13:36:56.274Z,60.99
2017-12-20T13:39:24.012Z,61.12
2017-12-20T13:41:51.763Z,61.20
2017-12-20T13:44:19.486Z,61.89
2017-12-20T13:46:47.228Z,62.57
2017-12-20T13:49:14.903Z,61.92
2017-12-20T13:51:42.626Z,62.35
2017-12-20T13:54:10.314Z,62.05
2017-12-20T13:56:37.987Z,63.36
2017-12-20T13:59:05.715Z,62.85
2017-12-20T14:01:33.398Z,63.17
2017-12-20T14:04:01.083Z,62.79
2017-12-20T14:06:28.811Z,62.85
2017-12-20T14:08:56.548Z,63.82
2017-12-20T14:11:24.284Z,63.35
2017-12-20T14:13:52.084Z,63.56
2017-12-20T14:16:19.758Z,64.23
2017-12-20T14:18:47.431Z,64.35
2017-12-20T14:21:15.159Z,65.04
2017-12-20T14:23:42.888Z,65.75
2017-12-20T14:26:10.633Z,64.52
2017-12-20T14:28:38.354Z,64.66
2017-12-20T14:31:06.037Z,64.15
2017-12-20T14:33:33.711Z,65.00
2017-12-20T14:36:01.435Z,65.17
2017-12-20T14:38:29.102Z,65.45
2017-12-20T14:40:56.835Z,65.65
2017-12-20T14:43:24.647Z,65.76
2017-12-20T14:45:52.391Z,65.67
2017-12-20T14:48:20.114Z,65.84
2017-12-20T14:50:47.971Z,65.00
2017-12-20T14:53:15.642Z,65.31
2017-12-20T14:55:43.338Z,66.12
2017-12-20T14:58:11.085Z,66.43
2017-12-20T15:00:38.867Z,65.45
2017-12-20T15:03:06.631Z,66.50
2017-12-20T15:05:34.395Z,65.97
2017-12-20T15:08:02.128Z,67.20
2017-12-20T15:10:29.811Z,66.76
2017-12-20T15:12:57.543Z,67.21
2017-12-20T15:15:25.277Z,66.16
2017-12-20T15:17:52.951Z,66.97
2017-12-20T15:20:20.681Z,66.82
2017-12-20T15:22:48.356Z,66.47
2017-12-20T15:25:16.036Z,67.22
2017-12-20T15:27:43.826Z,67.06
2017-12-20T15:30:11.534Z,66.88
2017-12-20T15:32:39.236Z,67.08
2017-12-20T15:35:06.993Z,67.15
2017-12-20T15:37:34.732Z,66.89
2017-12-20T15:40:02.468Z,67.67
2017-12-20T15:42:30.265Z,67.26
2017-12-20T15:44:57.987Z,67.67
2017-12-20T15:47:25.725Z,68.63
2017-12-20T15:49:53.483Z,67.40
2017-12-20T15:52:21.171Z,67.17
2017-12-20T15:54:48.915Z,67.01
2017-12-20T15:57:16.703Z,67.31
2017-12-20T15:59:44.450Z,67.41
2017-12-20T16:02:12.244Z,67.50
2017-12-20T16:04:39.972Z,67.62
2017-12-20T16:07:07.736Z,68.00
2017-12-20T16:09:35.412Z,68.87
2017-12-20T16:12:03.148Z,67.70
2017-12-20T16:14:30.829Z,67.65
2017-12-20T16:16:58.506Z,68.02
2017-12-20T16:19:26.239Z,67.16
2017-12-20T16:21:53.915Z,67.51
2017-12-20T16:24:21.591Z,67.51
2017-12-20T16:26:49.324Z,67.07
2017-12-20T16:29:17.004Z,67.45
2017-12-20T16:31:44.755Z,67.56
2017-12-20T16:34:12.486Z,67.42
2017-12-20T16:36:40.175Z,67.33
2017-12-20T16:39:07.851Z,67.29
2017-12-20T16:41:35.586Z,68.17
2017-12-20T16:44:03.263Z,68.44
2017-12-20T16:46:30.971Z,68.53
2017-12-20T16:48:58.714Z,68.58
2017-12-20T16:51:26.452Z,67.60
2017-12-20T16:53:54.187Z,67.49
2017-12-20T16:56:21.987Z,67.09
2017-12-20T16:58:49.670Z,67.12
2017-12-20T17:01:17.350Z,66.07
2017-12-20T17:03:45.144Z,65.27
2017-12-20T17:06:12.827Z,65.39
2017-12-20T17:08:40.556Z,65.75
2017-12-20T17:11:08.356Z,65.58
2017-12-20T17:13:36.027Z,65.41
2017-12-20T17:16:03.707Z,65.97
2017-12-20T17:18:31.445Z,63.97
2017-12-20T17:20:59.122Z,64.52
2017-12-20T17:23:26.842Z,64.36
2017-12-20T17:25:54.640Z,64.06
2017-12-20T17:28:22.314Z,64.25
2017-12-20T17:30:50.051Z,63.65
2017-12-20T17:33:17.783Z,65.35
2017-12-20T17:35:45.523Z,65.01
2017-12-20T17:38:13.271Z,64.60
2017-12-20T17:40:41.072Z,64.38
2017-12-20T17:43:08.765Z,64.96
2017-12-20T17:45:36.443Z,64.45
2017-12-20T17:48:04.278Z,64.46
2017-12-20T17:50:32.040Z,64.16
2017-12-20T17:52:59.740Z,63.39
2017-12-20T17:55:27.479Z,62.54
2017-12-20T17:57:55.211Z,63.22
2017-12-20T18:00:22.967Z,63.79
2017-12-20T18:02:50.751Z,63.79
2017-12-20T18:05:18.430Z,63.85
2017-12-20T18:07:46.113Z,65.23
2017-12-20T18:10:13.971Z,66.23
2017-12-20T18:12:41.699Z,66.62
2017-12-20T18:15:09.439Z,66.56
2017-12-20T18:17:37.231Z,66.40
2017-12-20T18:20:04.964Z,66.94
2017-12-20T18:22:32.747Z,66.78
2017-12-20T18:25:00.838Z,66.30
2017-12-20T18:27:28.572Z,66.22
2017-12-20T18:29:56.495Z,66.11
2017-12-20T18:32:24.243Z,65.75
2017-12-20T18:34:51.995Z,65.76
2017-12-20T18:37:19.747Z,65.28
2017-12-20T18:39:47.484Z,65.75
2017-12-20T18:42:15.159Z,66.04
2017-12-20T18:44:42.891Z,66.68
2017-12-20T18:47:10.722Z,66.46
2017-12-20T18:49:38.403Z,66.29
2017-12-20T18:52:06.163Z,66.13
2017-12-20T18:54:33.927Z,65.96
2017-12-20T18:57:01.611Z,65.92
2017-12-20T18:59:29.328Z,65.79
2017-12-20T19:01:57.078Z,66.65
2017-12-20T19:04:24.756Z,66.89
2017-12-20T19:06:52.491Z,67.19
2017-12-20T19:09:20.326Z,67.12
2017-12-20T19:11:48.012Z,67.28
2017-12-20T19:14:15.691Z,66.68
2017-12-20T19:16:43.420Z,66.51
2017-12-20T19:19:11.089Z,66.63
2017-12-20T19:21:38.819Z,67.47
2017-12-20T19:24:06.553Z,67.04
2017-12-20T19:26:34.227Z,67.32
2017-12-20T19:29:01.934Z,66.37
2017-12-20T19:31:29.735Z,65.72
2017-12-20T19:33:57.475Z,65.32
2017-12-20T19:36:25.211Z,66.96
2017-12-20T19:38:53.014Z,68.70
2017-12-20T19:41:20.703Z,68.22
2017-12-20T19:43:48.381Z,67.70
2017-12-20T19:46:16.181Z,67.84
2017-12-20T19:48:43.858Z,67.55
2017-12-20T19:51:11.596Z,67.89
2017-12-20T19:53:39.333Z,68.51
2017-12-20T19:56:07.018Z,68.56
2017-12-20T19:58:34.706Z,68.37
2017-12-20T20:01:02.436Z,68.94
2017-12-20T20:03:30.179Z,69.12
2017-12-20T20:05:57.863Z,69.69
2017-12-20T20:08:25.662Z,69.48
2017-12-20T20:10:53.339Z,69.09
2017-12-20T20:13:21.019Z,69.94
2017-12-20T20:15:48.755Z,69.78
2017-12-20T20:18:16.488Z,69.64
2017-12-20T20:20:44.232Z,69.70
2017-12-20T20:23:12.854Z,69.24
2017-12-20T20:25:40.590Z,70.46
2017-12-20T20:28:08.324Z,71.17
2017-12-20T20:30:36.125Z,71.84
2017-12-20T20:33:03.807Z,69.98
2017-12-20T20:35:31.481Z,70.21
2017-12-20T20:37:59.307Z,69.32
2017-12-20T20:40:26.987Z,69.17
2017-12-20T20:42:54.727Z,69.24
2017-12-20T20:45:22.521Z,69.33
2017-12-20T20:47:50.190Z,69.35
2017-12-20T20:50:17.879Z,68.28
2017-12-20T20:52:45.660Z,68.83
2017-12-20T20:55:13.391Z,68.07
2017-12-20T20:57:41.119Z,67.55
2017-12-20T21:00:08.860Z,67.42
2017-12-20T21:02:36.550Z,67.26
2017-12-20T21:05:04.226Z,67.43
2017-12-20T21:07:31.951Z,67.87
2017-12-20T21:09:59.634Z,66.96
2017-12-20T21:12:27.367Z,67.73
2017-12-20T21:14:55.102Z,68.90
2017-12-20T21:17:22.781Z,70.31
2017-12-20T21:19:50.520Z,70.31
2017-12-20T21:22:18.306Z,70.27
2017-12-20T21:24:45.979Z,70.99
2017-12-20T21:27:13.715Z,70.82
2017-12-20T21:29:41.453Z,70.32
2017-12-20T21:32:09.130Z,70.31
2017-12-20T21:34:36.868Z,70.28
2017-12-20T21:37:04.683Z,70.78
2017-12-20T21:39:32.360Z,69.35
2017-12-20T21:42:00.104Z,69.30
2017-12-20T21:44:27.888Z,69.45
2017-12-20T21:46:55.567Z,69.33
2017-12-20T21:49:23.307Z,68.57
2017-12-20T21:51:51.046Z,68.73
2017-12-20T21:54:18.723Z,68.46
2017-12-20T21:56:46.415Z,68.80
2017-12-20T21:59:14.223Z,68.04
2017-12-20T22:01:41.951Z,67.69
2017-12-20T22:04:09.633Z,68.44
2017-12-20T22:06:37.371Z,68.30
2017-12-20T22:09:05.107Z,67.88
2017-12-20T22:11:32.860Z,67.08
2017-12-20T22:14:00.594Z,66.82
2017-12-20T22:16:28.323Z,67.36
2017-12-20T22:18:56.003Z,66.87
2017-12-20T22:21:23.789Z,66.67
2017-12-20T22:23:51.478Z,67.79
2017-12-20T22:26:19.218Z,68.13
2017-12-20T22:28:46.942Z,67.55
2017-12-20T22:31:14.638Z,67.74
2017-12-20T22:33:42.338Z,67.55
2017-12-20T22:36:10.110Z,67.34
2017-12-20T22:38:37.797Z,67.85
2017-12-20T22:41:05.489Z,67.93
2017-12-20T22:43:33.294Z,68.93
2017-12-20T22:46:00.977Z,69.61
2017-12-20T22:48:28.686Z,69.95
2017-12-20T22:50:56.415Z,70.52
2017-12-20T22:53:24.155Z,70.63
2017-12-20T22:55:51.827Z,70.75
2017-12-20T22:58:19.567Z,70.56
2017-12-20T23:00:47.407Z,70.96
2017-12-20T23:03:15.085Z,71.16
2017-12-20T23:05:42.807Z,70.37
2017-12-20T23:08:10.487Z,69.92
2017-12-20T23:10:38.166Z,69.08
2017-12-20T23:13:05.956Z,70.09
2017-12-20T23:15:33.631Z,70.58
2017-12-20T23:18:01.368Z,70.97
2017-12-20T23:20:29.096Z,70.65
2017-12-20T23:22:56.775Z,70.73
2017-12-20T23:25:24.511Z,70.56
2017-12-20T23:27:52.317Z,70.15
2017-12-20T23:30:20.051Z,69.76
2017-12-20T23:32:47.780Z,70.66
2017-12-20T23:35:15.515Z,71.09
2017-12-20T23:37:43.266Z,70.81
2017-12-20T23:40:10.947Z,70.41
2017-12-20T23:42:38.699Z,69.34
2017-12-20T23:45:06.383Z,69.81
2017-12-20T23:47:34.057Z,70.71
2017-12-20T23:50:01.786Z,69.40
2017-12-20T23:52:29.468Z,69.68
2017-12-20T23:54:57.203Z,70.10
2017-12-20T23:57:24.943Z,70.38
2017-12-20T23:59:52.618Z,70.83
